Marine Rouge — JG5115 — position and weather

sailwx.info

Track history (hours):
 
Tides and Currents Weather Stations Pressure Air Temp Water Temp Dewpoint Dewpoint Depression Visibility Wind Speed Wind Dir Waves Ship Positions

Marine Rouge

Last reported at 2016-Sep-28 12:33 UTC. Time now 2016-Sep-28 15:27 UTC.
Position N 35°27' E 139°39'.

Length 52 m; draft 2.8 m.

Type: Passenger vessel. MMSI: 431000518.

Date/timePositionNaut miles runAvg speedWind from/ knotsBaromVisibWave heightAir tempDewpointWater temp
2016-Sep-28 12:33N 35°27' E 139°39'0 0.0
2016-Sep-28 08:33N 35°27' E 139°39'1 0.1
2016-Sep-28 03:33N 35°27' E 139°39'1 0.6
2016-Sep-28 02:33N 35°27' E 139°39'0 0.0
2016-Sep-28 01:33N 35°27' E 139°39'1 0.0
2016-Sep-27 10:33N 35°27' E 139°39'1 0.1
2016-Sep-27 00:33N 35°27' E 139°39'1 0.1
2016-Sep-26 11:34N 35°28' E 139°39'1 0.2
2016-Sep-26 08:33N 35°28' E 139°40'1 0.2
2016-Sep-26 02:33N 35°27' E 139°39'0 0.0
2016-Sep-26 01:33N 35°27' E 139°39'0 0.0
2016-Sep-26 00:33N 35°27' E 139°39'0 0.0
2016-Sep-25 12:33N 35°27' E 139°39'0 0.5
2016-Sep-25 11:33N 35°28' E 139°39'1 0.6
2016-Sep-25 10:33N 35°27' E 139°39'0 0.5
2016-Sep-25 09:33N 35°27' E 139°39'1 0.3
2016-Sep-25 07:33N 35°27' E 139°39'1 0.2
2016-Sep-25 04:33N 35°27' E 139°39'0 0.0
2016-Sep-25 00:33N 35°27' E 139°39'0 0.0
2016-Sep-24 12:33N 35°27' E 139°39'1 0.3
2016-Sep-24 10:33N 35°27' E 139°39'1 0.6
2016-Sep-24 09:33N 35°27' E 139°39'1 0.1
2016-Sep-24 03:33N 35°27' E 139°39'1 0.5
2016-Sep-24 02:33N 35°27' E 139°39'0 0.0
2016-Sep-24 01:33N 35°27' E 139°39'0 0.0
2016-Sep-24 00:33N 35°27' E 139°39'0 0.0
2016-Sep-23 09:33N 35°27' E 139°39'0 0.0
2016-Sep-23 06:33N 35°27' E 139°39'2 0.9
2016-Sep-23 04:33N 35°28' E 139°41'2 1.7
2016-Sep-23 03:33N 35°27' E 139°39'1 0.6
2016-Sep-23 02:33N 35°27' E 139°39'0 0.0
2016-Sep-23 01:33N 35°27' E 139°39'0 0.0
2016-Sep-22 12:32N 35°27' E 139°39'0 0.0
2016-Sep-22 04:33N 35°27' E 139°39'1 0.5
2016-Sep-22 03:33N 35°27' E 139°39'1 0.2
2016-Sep-22 00:33N 35°27' E 139°39'0 0.0
2016-Sep-21 09:33N 35°27' E 139°39'0 0.0
2016-Sep-21 08:33N 35°27' E 139°39'0 0.0
2016-Sep-21 05:34N 35°27' E 139°39'0 0.2
2016-Sep-21 03:34N 35°27' E 139°39'1 0.5
2016-Sep-21 02:34N 35°27' E 139°39'0 0.0
2016-Sep-20 08:33N 35°27' E 139°39'3 2.8
2016-Sep-20 07:33N 35°28' E 139°42'3 2.8
2016-Sep-20 06:33N 35°27' E 139°39'0 0.0
2016-Sep-20 02:33N 35°27' E 139°39'0 0.0
2016-Sep-19 12:33N 35°27' E 139°39'1 1.0
2016-Sep-19 11:34N 35°28' E 139°39'1 0.6
2016-Sep-19 09:33N 35°27' E 139°39'1 0.3
2016-Sep-19 07:33N 35°27' E 139°39'1 0.6
2016-Sep-19 06:33N 35°27' E 139°39'1 0.3
2016-Sep-19 03:33N 35°28' E 139°39'1 0.9
2016-Sep-19 02:33N 35°27' E 139°39'0 0.0
2016-Sep-19 00:33N 35°27' E 139°39'  
Track history (hours):
 
Tides and Currents Weather Stations Pressure Air Temp Water Temp Dewpoint Dewpoint Depression Visibility Wind Speed Wind Dir Waves Ship Positions

Marine Rouge

Last reported at 2016-Sep-28 12:33 UTC. Time now 2016-Sep-28 15:27 UTC.
Position N 35°27' E 139°39'.

Length 52 m; draft 2.8 m.

Type: Passenger vessel. MMSI: 431000518.

Date/timePositionNaut miles runAvg speedWind from/ knotsBaromVisibWave heightAir tempDewpointWater temp
2016-Sep-28 12:33N 35°27' E 139°39'0 0.0
2016-Sep-28 08:33N 35°27' E 139°39'1 0.1
2016-Sep-28 03:33N 35°27' E 139°39'1 0.6
2016-Sep-28 02:33N 35°27' E 139°39'0 0.0
2016-Sep-28 01:33N 35°27' E 139°39'1 0.0
2016-Sep-27 10:33N 35°27' E 139°39'1 0.1
2016-Sep-27 00:33N 35°27' E 139°39'1 0.1
2016-Sep-26 11:34N 35°28' E 139°39'1 0.2
2016-Sep-26 08:33N 35°28' E 139°40'1 0.2
2016-Sep-26 02:33N 35°27' E 139°39'0 0.0
2016-Sep-26 01:33N 35°27' E 139°39'0 0.0
2016-Sep-26 00:33N 35°27' E 139°39'0 0.0
2016-Sep-25 12:33N 35°27' E 139°39'0 0.5
2016-Sep-25 11:33N 35°28' E 139°39'1 0.6
2016-Sep-25 10:33N 35°27' E 139°39'0 0.5
2016-Sep-25 09:33N 35°27' E 139°39'1 0.3
2016-Sep-25 07:33N 35°27' E 139°39'1 0.2
2016-Sep-25 04:33N 35°27' E 139°39'0 0.0
2016-Sep-25 00:33N 35°27' E 139°39'0 0.0
2016-Sep-24 12:33N 35°27' E 139°39'1 0.3
2016-Sep-24 10:33N 35°27' E 139°39'1 0.6
2016-Sep-24 09:33N 35°27' E 139°39'1 0.1
2016-Sep-24 03:33N 35°27' E 139°39'1 0.5
2016-Sep-24 02:33N 35°27' E 139°39'0 0.0
2016-Sep-24 01:33N 35°27' E 139°39'0 0.0
2016-Sep-24 00:33N 35°27' E 139°39'0 0.0
2016-Sep-23 09:33N 35°27' E 139°39'0 0.0
2016-Sep-23 06:33N 35°27' E 139°39'2 0.9
2016-Sep-23 04:33N 35°28' E 139°41'2 1.7
2016-Sep-23 03:33N 35°27' E 139°39'1 0.6
2016-Sep-23 02:33N 35°27' E 139°39'0 0.0
2016-Sep-23 01:33N 35°27' E 139°39'0 0.0
2016-Sep-22 12:32N 35°27' E 139°39'0 0.0
2016-Sep-22 04:33N 35°27' E 139°39'1 0.5
2016-Sep-22 03:33N 35°27' E 139°39'1 0.2
2016-Sep-22 00:33N 35°27' E 139°39'0 0.0
2016-Sep-21 09:33N 35°27' E 139°39'0 0.0
2016-Sep-21 08:33N 35°27' E 139°39'0 0.0
2016-Sep-21 05:34N 35°27' E 139°39'0 0.2
2016-Sep-21 03:34N 35°27' E 139°39'1 0.5
2016-Sep-21 02:34N 35°27' E 139°39'0 0.0
2016-Sep-20 08:33N 35°27' E 139°39'3 2.8
2016-Sep-20 07:33N 35°28' E 139°42'3 2.8
2016-Sep-20 06:33N 35°27' E 139°39'0 0.0
2016-Sep-20 02:33N 35°27' E 139°39'0 0.0
2016-Sep-19 12:33N 35°27' E 139°39'1 1.0
2016-Sep-19 11:34N 35°28' E 139°39'1 0.6
2016-Sep-19 09:33N 35°27' E 139°39'1 0.3
2016-Sep-19 07:33N 35°27' E 139°39'1 0.6
2016-Sep-19 06:33N 35°27' E 139°39'1 0.3
2016-Sep-19 03:33N 35°28' E 139°39'1 0.9
2016-Sep-19 02:33N 35°27' E 139°39'0 0.0
2016-Sep-19 00:33N 35°27' E 139°39'  

Dump ship's entire track history